Time;durP1;ratioP1;P1;durP2;ratioP2;P2;SDS_P1;SDS_P2;PMS_P1;PMS_P2;Temp;Humidity;BMP_temperature;BMP_pressure;BME280_temperature;BME280_humidity;BME280_pressure;Samples;Min_cycle;Max_cycle;Signal;HPM_P1;HPM_P2
2021/10/17 00:00:38;;;;;;;27.30;14.52;;;8.90;99.90;;;;;;5074547;28;20078;-81
2021/10/17 00:03:04;;;;;;;25.58;13.50;;;8.80;99.90;;;;;;5069755;28;20052;-79
2021/10/17 00:05:33;;;;;;;22.92;13.35;;;8.80;99.90;;;;;;5072501;28;20444;-79
2021/10/17 00:07:59;;;;;;;23.40;13.43;;;8.80;99.90;;;;;;5074889;28;20025;-80
2021/10/17 00:10:28;;;;;;;25.48;14.40;;;8.80;99.90;;;;;;5074222;28;20446;-79
2021/10/17 00:12:56;;;;;;;24.17;14.10;;;8.80;99.90;;;;;;5074389;28;20028;-80
2021/10/17 00:15:23;;;;;;;20.48;12.32;;;8.70;99.90;;;;;;5072321;28;20029;-78
2021/10/17 00:17:50;;;;;;;24.13;12.68;;;8.80;99.90;;;;;;5063165;28;20021;-80
2021/10/17 00:20:18;;;;;;;23.25;13.75;;;8.80;99.90;;;;;;5070970;28;20025;-80
2021/10/17 00:22:44;;;;;;;25.50;13.43;;;8.80;99.90;;;;;;5074268;28;20499;-82
2021/10/17 00:25:11;;;;;;;25.13;13.82;;;8.70;99.90;;;;;;5073217;28;20025;-79
2021/10/17 00:27:37;;;;;;;22.02;12.23;;;8.60;99.90;;;;;;5073593;28;20058;-79
2021/10/17 00:30:06;;;;;;;24.90;13.18;;;8.50;99.90;;;;;;5073323;28;20485;-80
2021/10/17 00:32:32;;;;;;;22.33;13.60;;;8.50;99.90;;;;;;5068825;28;20032;-81
2021/10/17 00:35:01;;;;;;;28.95;13.68;;;8.60;99.90;;;;;;5073551;28;20029;-79
2021/10/17 00:37:28;;;;;;;23.25;13.32;;;8.60;99.90;;;;;;5071671;28;20021;-78
2021/10/17 00:39:54;;;;;;;25.30;13.73;;;8.60;99.90;;;;;;5073861;28;20451;-80
2021/10/17 00:42:20;;;;;;;29.67;15.27;;;8.60;99.90;;;;;;5073883;28;20031;-79
2021/10/17 00:44:54;;;;;;;25.92;14.00;;;8.60;99.90;;;;;;5073754;28;20032;-84
2021/10/17 00:47:20;;;;;;;27.58;15.65;;;8.50;99.90;;;;;;5066992;28;20025;-84
2021/10/17 00:49:47;;;;;;;24.73;13.45;;;8.50;99.90;;;;;;5065756;28;20036;-83
2021/10/17 00:52:13;;;;;;;22.08;12.55;;;8.50;99.90;;;;;;5073559;28;20031;-79
2021/10/17 00:54:44;;;;;;;26.60;12.93;;;8.40;99.90;;;;;;5073136;28;20050;-81
2021/10/17 00:57:15;;;;;;;25.15;13.00;;;8.40;99.90;;;;;;5073132;28;20434;-79
2021/10/17 00:59:41;;;;;;;25.38;13.13;;;8.50;99.90;;;;;;5064561;28;20465;-79
2021/10/17 01:02:07;;;;;;;21.90;13.57;;;8.50;99.90;;;;;;5073611;28;20028;-78
2021/10/17 01:04:37;;;;;;;26.35;13.35;;;8.50;99.90;;;;;;5072061;28;20143;-79
2021/10/17 01:07:04;;;;;;;23.17;12.93;;;8.50;99.90;;;;;;5072623;28;20025;-79
2021/10/17 01:09:29;;;;;;;19.10;13.52;;;8.60;99.90;;;;;;5072851;28;20025;-85
2021/10/17 01:11:55;;;;;;;25.85;14.07;;;8.50;99.90;;;;;;5072678;28;20032;-80
2021/10/17 01:14:25;;;;;;;29.45;13.20;;;8.50;99.90;;;;;;5072720;28;20445;-84
2021/10/17 01:16:52;;;;;;;29.92;14.15;;;8.50;99.90;;;;;;5073423;28;20028;-82
2021/10/17 01:19:19;;;;;;;28.23;15.02;;;8.50;99.90;;;;;;5071989;28;20538;-83
2021/10/17 01:21:46;;;;;;;22.90;11.82;;;8.60;99.90;;;;;;5073579;28;20025;-83
2021/10/17 01:24:13;;;;;;;22.15;12.90;;;8.60;99.90;;;;;;5073389;28;20028;-84
2021/10/17 01:26:40;;;;;;;28.00;13.77;;;8.60;99.90;;;;;;5073057;28;20032;-82
2021/10/17 01:29:06;;;;;;;23.38;13.07;;;8.60;99.90;;;;;;5073114;28;20077;-82
2021/10/17 01:31:33;;;;;;;26.60;11.85;;;8.60;99.90;;;;;;5071537;28;21088;-85
2021/10/17 01:34:01;;;;;;;21.95;12.75;;;8.60;99.90;;;;;;5066545;28;20029;-82
2021/10/17 01:36:26;;;;;;;20.27;12.55;;;8.60;99.90;;;;;;5075514;28;20032;-83
2021/10/17 01:38:52;;;;;;;19.30;11.23;;;8.60;99.90;;;;;;5074135;28;20103;-79
2021/10/17 01:41:18;;;;;;;21.48;12.07;;;8.60;99.90;;;;;;5072969;28;20067;-81
2021/10/17 01:43:44;;;;;;;21.38;10.85;;;8.60;99.90;;;;;;5072876;28;20364;-79
2021/10/17 01:46:09;;;;;;;25.48;12.70;;;8.60;99.90;;;;;;5072882;28;20552;-79
2021/10/17 01:48:35;;;;;;;19.48;10.68;;;8.60;99.90;;;;;;5072376;28;20021;-83
2021/10/17 01:51:01;;;;;;;20.85;10.48;;;8.50;99.90;;;;;;5071600;28;20041;-83
2021/10/17 01:53:29;;;;;;;22.13;12.23;;;8.50;99.90;;;;;;5069730;28;20023;-79
2021/10/17 01:56:00;;;;;;;20.23;12.10;;;8.20;99.90;;;;;;5072533;28;20035;-82
2021/10/17 01:58:26;;;;;;;26.90;12.02;;;8.00;99.90;;;;;;5071832;28;20025;-79
2021/10/17 02:00:53;;;;;;;21.33;12.18;;;8.10;99.90;;;;;;5072752;28;20021;-80
2021/10/17 02:03:19;;;;;;;24.40;12.75;;;8.20;99.90;;;;;;5071753;28;20025;-80
2021/10/17 02:05:45;;;;;;;22.63;12.05;;;8.30;99.90;;;;;;5072526;28;20059;-81
2021/10/17 02:08:11;;;;;;;27.70;12.07;;;8.40;99.90;;;;;;5072094;28;20040;-81
2021/10/17 02:10:36;;;;;;;22.05;11.68;;;8.40;99.90;;;;;;5072056;28;20075;-80
2021/10/17 02:13:02;;;;;;;23.17;10.93;;;8.40;99.90;;;;;;5072269;28;20500;-81
2021/10/17 02:15:28;;;;;;;20.70;12.18;;;8.30;99.90;;;;;;5071673;28;20032;-80
2021/10/17 02:17:54;;;;;;;25.65;12.25;;;8.30;99.90;;;;;;5072022;28;20526;-79
2021/10/17 02:20:19;;;;;;;26.85;12.30;;;8.20;99.90;;;;;;5071077;28;20043;-80
2021/10/17 02:22:45;;;;;;;22.48;12.65;;;8.20;99.90;;;;;;5072403;28;20021;-81
2021/10/17 02:25:11;;;;;;;22.00;11.68;;;8.30;99.90;;;;;;5071905;28;20028;-79
2021/10/17 02:27:37;;;;;;;19.40;12.40;;;8.30;99.90;;;;;;5071478;28;20500;-79
2021/10/17 02:30:04;;;;;;;28.90;12.48;;;8.30;99.90;;;;;;5072001;28;20028;-79
2021/10/17 02:32:30;;;;;;;25.60;11.77;;;8.30;99.90;;;;;;5071568;28;20017;-80
2021/10/17 02:34:56;;;;;;;23.08;12.32;;;8.30;99.90;;;;;;5071978;28;20370;-80
2021/10/17 02:37:21;;;;;;;20.98;12.52;;;8.30;99.90;;;;;;5071397;28;20021;-78
2021/10/17 02:39:47;;;;;;;27.02;12.38;;;8.20;99.90;;;;;;5071258;28;20108;-81
2021/10/17 02:42:13;;;;;;;22.88;12.63;;;8.20;99.90;;;;;;5070599;28;20484;-80
2021/10/17 02:44:38;;;;;;;18.92;11.77;;;8.20;99.90;;;;;;5071729;28;20033;-80
2021/10/17 02:47:05;;;;;;;24.88;11.57;;;8.20;99.90;;;;;;5071891;28;20025;-81
2021/10/17 02:49:30;;;;;;;23.55;11.55;;;8.20;99.90;;;;;;5069669;28;20025;-80
2021/10/17 02:51:56;;;;;;;23.45;12.20;;;8.20;99.90;;;;;;5072078;28;20145;-82
2021/10/17 02:54:24;;;;;;;23.80;11.35;;;8.20;99.90;;;;;;5071620;28;20115;-80
2021/10/17 02:56:50;;;;;;;18.98;11.40;;;8.20;99.90;;;;;;5071870;28;20050;-81
2021/10/17 02:59:15;;;;;;;22.27;10.90;;;8.10;99.90;;;;;;5070994;28;20025;-81
2021/10/17 03:01:42;;;;;;;23.65;10.80;;;8.10;99.90;;;;;;5072014;28;20017;-82
2021/10/17 03:04:08;;;;;;;20.80;11.70;;;8.00;99.90;;;;;;5071742;28;20032;-79
2021/10/17 03:06:33;;;;;;;19.73;10.60;;;8.00;99.90;;;;;;5071274;28;20033;-80
2021/10/17 03:08:59;;;;;;;22.02;11.38;;;8.10;99.90;;;;;;5071492;28;20443;-80
2021/10/17 03:11:25;;;;;;;38.03;11.80;;;8.00;99.90;;;;;;5071122;28;20068;-79
2021/10/17 03:13:50;;;;;;;24.85;11.65;;;8.10;99.90;;;;;;5071414;28;20107;-78
2021/10/17 03:16:16;;;;;;;23.02;12.45;;;8.00;99.90;;;;;;5071253;28;20040;-80
2021/10/17 03:18:42;;;;;;;19.98;11.38;;;8.00;99.90;;;;;;5071570;28;20025;-80
2021/10/17 03:21:07;;;;;;;22.77;10.93;;;8.00;99.90;;;;;;5070917;28;20435;-82
2021/10/17 03:23:33;;;;;;;16.95;10.88;;;8.00;99.90;;;;;;5070882;28;20517;-82
2021/10/17 03:25:59;;;;;;;23.58;12.35;;;7.90;99.90;;;;;;5071292;28;20542;-80
2021/10/17 03:28:24;;;;;;;26.33;11.95;;;8.00;99.90;;;;;;5070585;28;20044;-83
2021/10/17 03:30:54;;;;;;;20.02;12.05;;;8.00;99.90;;;;;;5071302;28;20024;-83
2021/10/17 03:33:21;;;;;;;21.50;12.45;;;8.00;99.90;;;;;;5070899;28;20036;-82
2021/10/17 03:35:47;;;;;;;23.63;13.18;;;8.00;99.90;;;;;;5071463;28;20442;-83
2021/10/17 03:38:13;;;;;;;25.42;12.60;;;8.00;99.90;;;;;;5071493;28;20025;-78
2021/10/17 03:40:38;;;;;;;26.48;12.98;;;7.90;99.90;;;;;;5071457;28;20028;-82
2021/10/17 03:43:04;;;;;;;28.35;12.25;;;8.00;99.90;;;;;;5071145;28;20070;-82
2021/10/17 03:45:30;;;;;;;18.27;10.88;;;8.00;99.90;;;;;;5070441;28;20056;-82
2021/10/17 03:47:57;;;;;;;20.08;11.48;;;8.00;99.90;;;;;;5071352;28;20032;-81
2021/10/17 03:50:23;;;;;;;22.10;11.65;;;8.00;99.90;;;;;;5071503;28;20096;-81
2021/10/17 03:52:49;;;;;;;22.30;11.55;;;8.00;99.90;;;;;;5073992;28;20029;-80
2021/10/17 03:55:14;;;;;;;18.65;12.00;;;7.90;99.90;;;;;;5074380;28;20036;-81
2021/10/17 03:57:40;;;;;;;26.90;12.63;;;8.00;99.90;;;;;;5074834;28;20028;-82
2021/10/17 04:00:06;;;;;;;22.40;13.38;;;7.90;99.90;;;;;;5075158;28;20108;-79
2021/10/17 04:02:34;;;;;;;23.45;11.68;;;7.90;99.90;;;;;;5074805;28;20032;-83
2021/10/17 04:05:00;;;;;;;24.90;13.18;;;7.90;99.90;;;;;;5074187;28;20021;-82
2021/10/17 04:07:25;;;;;;;28.63;13.48;;;7.90;99.90;;;;;;5074196;28;20059;-81
2021/10/17 04:09:51;;;;;;;25.33;12.90;;;7.90;99.90;;;;;;5074147;28;20036;-81
2021/10/17 04:12:16;;;;;;;19.40;11.57;;;7.90;99.90;;;;;;5074005;28;20025;-81
2021/10/17 04:14:42;;;;;;;20.98;12.40;;;7.90;99.90;;;;;;5074590;28;20435;-81
2021/10/17 04:17:08;;;;;;;23.45;12.00;;;8.00;99.90;;;;;;5074550;28;20082;-81
2021/10/17 04:19:33;;;;;;;22.20;12.43;;;8.00;99.90;;;;;;5073433;28;20028;-80
2021/10/17 04:21:59;;;;;;;21.23;12.88;;;8.00;99.90;;;;;;5074403;28;20036;-80
2021/10/17 04:24:25;;;;;;;19.30;11.75;;;8.00;99.90;;;;;;5073775;28;20017;-80
2021/10/17 04:26:51;;;;;;;16.98;11.63;;;7.90;99.90;;;;;;5074082;28;20038;-81
2021/10/17 04:29:16;;;;;;;23.63;11.95;;;7.80;99.90;;;;;;5073913;28;20020;-81
2021/10/17 04:31:42;;;;;;;25.08;12.43;;;7.80;99.90;;;;;;5074286;28;20384;-83
2021/10/17 04:34:08;;;;;;;25.30;12.50;;;7.90;99.90;;;;;;5074378;28;20025;-82
2021/10/17 04:36:34;;;;;;;23.83;12.57;;;7.80;99.90;;;;;;5073711;28;20028;-81
2021/10/17 04:39:00;;;;;;;27.60;13.40;;;7.90;99.90;;;;;;5074204;28;20562;-82
2021/10/17 04:41:27;;;;;;;27.55;12.55;;;7.90;99.90;;;;;;5073260;28;20032;-81
2021/10/17 04:43:52;;;;;;;23.33;11.75;;;7.90;99.90;;;;;;5074077;28;20024;-81
2021/10/17 04:46:18;;;;;;;20.15;11.73;;;7.90;99.90;;;;;;5073308;28;20035;-81
2021/10/17 04:48:44;;;;;;;19.35;11.65;;;7.80;99.90;;;;;;5074148;28;20074;-81
2021/10/17 04:51:09;;;;;;;22.02;11.73;;;7.90;99.90;;;;;;5065763;28;20041;-81
2021/10/17 04:53:35;;;;;;;25.70;12.32;;;8.00;99.90;;;;;;5073659;28;20039;-80
2021/10/17 04:56:01;;;;;;;28.02;13.88;;;8.00;99.90;;;;;;5073435;28;20037;-80
2021/10/17 04:58:28;;;;;;;23.13;13.68;;;8.10;99.90;;;;;;5073420;28;20021;-81
2021/10/17 05:00:55;;;;;;;21.42;13.05;;;8.10;99.90;;;;;;5073515;28;20380;-83
2021/10/17 05:03:20;;;;;;;21.63;13.68;;;8.20;99.90;;;;;;5070856;28;20101;-82
2021/10/17 05:05:46;;;;;;;27.35;14.38;;;8.20;99.90;;;;;;5072761;28;20116;-82
2021/10/17 05:08:12;;;;;;;26.02;12.60;;;8.20;99.90;;;;;;5074051;28;20021;-82
2021/10/17 05:10:37;;;;;;;26.90;14.20;;;8.20;99.90;;;;;;5073274;28;20039;-80
2021/10/17 05:13:03;;;;;;;28.00;14.27;;;8.20;99.90;;;;;;5073396;28;20079;-80
2021/10/17 05:15:28;;;;;;;28.05;15.82;;;8.30;99.90;;;;;;5071418;28;20043;-82
2021/10/17 05:17:54;;;;;;;22.95;13.68;;;8.30;99.90;;;;;;5073493;28;20027;-82
2021/10/17 05:20:20;;;;;;;31.63;15.60;;;8.30;99.90;;;;;;5072236;28;20028;-82
2021/10/17 05:22:45;;;;;;;28.42;15.23;;;8.30;99.90;;;;;;5072141;28;20477;-82
2021/10/17 05:25:13;;;;;;;27.63;14.32;;;8.30;99.90;;;;;;5071427;28;20054;-82
2021/10/17 05:27:39;;;;;;;28.40;14.70;;;8.30;99.90;;;;;;5072951;28;20028;-81
2021/10/17 05:30:05;;;;;;;29.25;14.18;;;8.40;99.90;;;;;;5073353;28;20381;-82
2021/10/17 05:32:31;;;;;;;26.20;15.20;;;8.30;99.90;;;;;;5072424;28;20055;-82
2021/10/17 05:34:57;;;;;;;29.42;15.02;;;8.40;99.90;;;;;;5073074;28;20036;-82
2021/10/17 05:37:22;;;;;;;35.08;15.60;;;8.40;99.90;;;;;;5072387;28;20025;-83
2021/10/17 05:39:48;;;;;;;28.05;14.57;;;8.40;99.90;;;;;;5072896;28;20036;-84
2021/10/17 05:42:13;;;;;;;31.67;15.65;;;8.40;99.90;;;;;;5072340;28;20024;-82
2021/10/17 05:44:39;;;;;;;31.58;15.27;;;8.40;99.90;;;;;;5072861;28;20028;-84
2021/10/17 05:47:05;;;;;;;36.63;17.33;;;8.40;99.90;;;;;;5072829;28;20040;-84
2021/10/17 05:49:31;;;;;;;35.05;16.70;;;8.40;99.90;;;;;;5071753;28;20021;-83
2021/10/17 05:51:57;;;;;;;37.05;17.40;;;8.50;99.90;;;;;;5072528;28;20154;-83
2021/10/17 05:54:23;;;;;;;36.63;15.95;;;8.50;99.90;;;;;;5072142;28;20103;-84
2021/10/17 05:56:48;;;;;;;34.97;15.15;;;8.50;99.90;;;;;;5072619;28;20039;-83
2021/10/17 05:59:14;;;;;;;29.85;15.57;;;8.50;99.90;;;;;;5072117;28;20489;-82
2021/10/17 06:01:40;;;;;;;34.28;15.68;;;8.50;99.90;;;;;;5072549;28;20036;-83
2021/10/17 06:04:05;;;;;;;36.00;16.08;;;8.60;99.90;;;;;;5072411;28;20100;-84
2021/10/17 06:06:31;;;;;;;32.78;14.27;;;8.60;99.90;;;;;;5071906;28;20052;-84
2021/10/17 06:08:58;;;;;;;32.22;14.82;;;8.60;99.90;;;;;;5072412;28;20066;-83
2021/10/17 06:11:24;;;;;;;29.42;15.15;;;8.60;99.90;;;;;;5071895;28;20024;-84
2021/10/17 06:13:50;;;;;;;28.33;15.95;;;8.60;99.90;;;;;;5069594;28;20455;-84
2021/10/17 06:16:15;;;;;;;38.22;19.55;;;8.60;99.90;;;;;;5071954;28;20025;-83
2021/10/17 06:18:41;;;;;;;44.88;22.17;;;8.60;99.90;;;;;;5072594;28;20029;-84
2021/10/17 06:21:07;;;;;;;56.03;27.70;;;8.60;99.90;;;;;;5076251;28;20030;-83
2021/10/17 06:23:34;;;;;;;39.08;17.02;;;8.70;99.90;;;;;;5074581;28;20515;-83
2021/10/17 06:26:00;;;;;;;39.05;19.48;;;8.70;99.90;;;;;;5072048;28;20020;-83
2021/10/17 06:28:26;;;;;;;38.05;20.42;;;8.60;99.90;;;;;;5071702;28;20032;-84
2021/10/17 06:30:52;;;;;;;39.78;18.58;;;8.60;99.90;;;;;;5072345;28;20069;-81
2021/10/17 06:33:18;;;;;;;36.55;16.02;;;8.50;99.90;;;;;;5071581;28;20024;-81
2021/10/17 06:35:44;;;;;;;30.05;14.85;;;8.50;99.90;;;;;;5072031;28;20115;-81
2021/10/17 06:38:10;;;;;;;31.98;15.73;;;8.50;99.90;;;;;;5071950;28;20025;-81
2021/10/17 06:40:35;;;;;;;29.65;15.57;;;8.60;99.90;;;;;;5071777;28;20039;-85
2021/10/17 06:43:02;;;;;;;27.20;14.38;;;8.50;99.90;;;;;;5070069;28;20024;-83
2021/10/17 06:45:28;;;;;;;30.00;17.48;;;8.50;99.90;;;;;;5061923;28;20673;-83
2021/10/17 06:47:54;;;;;;;39.67;19.02;;;8.60;99.90;;;;;;5071950;28;20104;-82
2021/10/17 06:50:20;;;;;;;38.20;20.42;;;8.70;99.90;;;;;;5071681;28;20107;-82
2021/10/17 06:52:50;;;;;;;40.97;17.83;;;8.80;99.90;;;;;;5070301;28;20540;-82
2021/10/17 06:55:17;;;;;;;34.78;17.17;;;8.80;99.90;;;;;;5071283;28;20090;-83
2021/10/17 06:57:44;;;;;;;34.17;15.30;;;8.90;99.90;;;;;;5063106;28;20032;-82
2021/10/17 07:00:11;;;;;;;32.05;16.92;;;8.90;99.90;;;;;;5072146;28;20044;-82
2021/10/17 07:02:37;;;;;;;35.95;17.60;;;8.90;99.90;;;;;;5071251;28;20111;-82
2021/10/17 07:05:03;;;;;;;35.45;17.23;;;8.90;99.90;;;;;;5071558;28;20096;-83
2021/10/17 07:07:29;;;;;;;37.45;18.58;;;8.80;99.90;;;;;;5069516;28;20017;-81
2021/10/17 07:09:54;;;;;;;38.28;17.48;;;8.90;99.90;;;;;;5071786;28;20090;-83
2021/10/17 07:12:20;;;;;;;31.38;16.02;;;8.80;99.90;;;;;;5070823;28;20062;-82
2021/10/17 07:14:46;;;;;;;38.63;17.02;;;9.00;99.90;;;;;;5071253;28;20373;-82
2021/10/17 07:17:11;;;;;;;33.22;16.52;;;9.10;99.90;;;;;;5071587;28;20461;-82
2021/10/17 07:19:38;;;;;;;35.47;17.13;;;9.10;99.90;;;;;;5070031;28;20040;-82
2021/10/17 07:22:04;;;;;;;36.83;16.63;;;9.20;99.90;;;;;;5071549;28;20021;-83
2021/10/17 07:24:29;;;;;;;35.63;16.25;;;9.20;99.90;;;;;;5070771;28;20024;-81
2021/10/17 07:26:58;;;;;;;37.28;17.17;;;9.30;99.90;;;;;;5075155;28;20507;-82
2021/10/17 07:29:25;;;;;;;44.88;21.70;;;9.30;99.90;;;;;;5074687;28;20066;-82
2021/10/17 07:31:51;;;;;;;38.17;18.73;;;9.40;99.90;;;;;;5074295;28;20098;-82
2021/10/17 07:34:16;;;;;;;38.75;17.65;;;9.40;99.90;;;;;;5073153;28;20071;-82
2021/10/17 07:36:42;;;;;;;40.00;16.88;;;9.40;99.90;;;;;;5074943;28;20481;-82
2021/10/17 07:39:10;;;;;;;32.75;17.48;;;9.40;99.90;;;;;;5075455;28;20468;-83
2021/10/17 07:41:37;;;;;;;34.10;16.88;;;9.50;99.90;;;;;;5073463;28;20283;-81
2021/10/17 07:44:03;;;;;;;32.90;17.48;;;9.50;99.90;;;;;;5073564;28;20021;-83
2021/10/17 07:46:28;;;;;;;41.08;19.50;;;9.60;99.90;;;;;;5072510;28;20115;-83
2021/10/17 07:48:58;;;;;;;37.78;18.38;;;9.50;99.90;;;;;;5075253;28;20199;-82
2021/10/17 07:51:25;;;;;;;36.85;18.30;;;9.50;99.90;;;;;;5070007;28;20025;-83
2021/10/17 07:53:52;;;;;;;40.70;18.90;;;9.60;99.90;;;;;;5074554;28;20016;-82
2021/10/17 07:56:18;;;;;;;40.60;17.17;;;9.70;99.90;;;;;;5066112;28;20039;-82
2021/10/17 07:58:43;;;;;;;37.15;17.48;;;9.80;99.90;;;;;;5063649;28;20012;-82
2021/10/17 08:01:09;;;;;;;41.05;19.35;;;9.80;99.90;;;;;;5065416;28;20555;-82
2021/10/17 08:03:35;;;;;;;33.58;18.02;;;9.80;99.90;;;;;;5073100;28;20032;-82
2021/10/17 08:06:01;;;;;;;40.97;17.20;;;9.90;99.90;;;;;;5072054;28;20032;-83
2021/10/17 08:08:27;;;;;;;32.00;16.40;;;9.90;99.90;;;;;;5073030;28;20067;-84
2021/10/17 08:10:53;;;;;;;30.33;16.40;;;9.80;99.90;;;;;;5074544;28;20493;-84
2021/10/17 08:13:19;;;;;;;36.58;15.75;;;9.80;99.90;;;;;;5074488;28;20111;-84
2021/10/17 08:15:45;;;;;;;28.75;16.65;;;9.90;99.90;;;;;;5074324;28;20115;-85
2021/10/17 08:18:11;;;;;;;31.75;17.27;;;9.90;99.90;;;;;;5074487;28;20071;-84
2021/10/17 08:20:37;;;;;;;34.53;15.95;;;9.90;99.90;;;;;;5074127;28;20029;-82
2021/10/17 08:23:03;;;;;;;32.33;14.63;;;10.10;99.90;;;;;;5074710;28;20025;-82
2021/10/17 08:25:31;;;;;;;27.63;15.75;;;10.20;99.90;;;;;;5071917;28;20021;-83
2021/10/17 08:27:58;;;;;;;27.77;15.43;;;10.30;99.90;;;;;;5074092;28;20028;-83
2021/10/17 08:30:24;;;;;;;31.75;14.77;;;10.40;99.90;;;;;;5072498;28;20024;-82
2021/10/17 08:32:50;;;;;;;33.78;16.40;;;10.50;99.90;;;;;;5072998;28;20021;-82
2021/10/17 08:35:16;;;;;;;28.58;13.73;;;10.60;99.90;;;;;;5072732;28;20051;-82
2021/10/17 08:37:42;;;;;;;31.48;14.93;;;10.60;99.90;;;;;;5071689;28;20028;-84
2021/10/17 08:40:09;;;;;;;32.67;16.27;;;10.70;99.90;;;;;;5071260;28;20043;-78
2021/10/17 08:42:36;;;;;;;33.17;14.80;;;10.70;99.90;;;;;;5066172;28;20027;-79
2021/10/17 08:45:03;;;;;;;25.63;13.30;;;10.80;99.90;;;;;;5063217;28;20381;-79
2021/10/17 08:47:31;;;;;;;26.42;13.00;;;10.80;99.90;;;;;;5068506;28;20049;-78
2021/10/17 08:49:57;;;;;;;26.52;13.93;;;10.90;99.90;;;;;;5073741;28;20017;-78
2021/10/17 08:52:23;;;;;;;30.50;14.20;;;11.00;99.90;;;;;;5073616;28;20032;-78
2021/10/17 08:54:49;;;;;;;27.17;12.57;;;11.10;99.90;;;;;;5073683;28;20040;-78
2021/10/17 08:57:15;;;;;;;34.00;13.70;;;11.20;99.90;;;;;;5067611;28;20032;-77
2021/10/17 08:59:48;;;;;;;32.47;12.45;;;11.30;99.90;;;;;;5067681;28;20020;-78
2021/10/17 09:02:20;;;;;;;28.15;12.48;;;11.40;99.90;;;;;;5064267;28;20013;-77
2021/10/17 09:04:59;;;;;;;27.58;11.60;;;11.40;99.90;;;;;;5064765;28;20040;-78
2021/10/17 09:07:25;;;;;;;20.60;10.98;;;11.50;99.90;;;;;;5063209;28;20021;-78
2021/10/17 09:10:13;;;;;;;21.42;11.00;;;11.50;99.90;;;;;;5065412;28;20066;-78
2021/10/17 09:12:41;;;;;;;19.27;10.23;;;11.60;99.90;;;;;;5066912;28;20056;-78
2021/10/17 09:15:37;;;;;;;21.75;10.48;;;11.60;99.90;;;;;;5065771;28;20484;-78
2021/10/17 09:18:21;;;;;;;17.30;9.18;;;11.70;99.90;;;;;;5066438;28;20104;-80
2021/10/17 09:20:47;;;;;;;18.75;10.63;;;11.80;99.90;;;;;;5064357;28;20438;-78
2021/10/17 09:23:36;;;;;;;22.98;10.27;;;11.80;99.90;;;;;;5066809;28;20016;-78
2021/10/17 09:26:14;;;;;;;25.38;10.05;;;11.70;99.90;;;;;;5067002;28;20036;-78
2021/10/17 09:28:40;;;;;;;21.88;9.98;;;11.90;99.90;;;;;;5073085;28;20086;-78
2021/10/17 09:31:08;;;;;;;16.00;9.18;;;12.00;99.90;;;;;;5057683;28;20489;-78
2021/10/17 09:33:45;;;;;;;21.02;8.77;;;12.10;99.90;;;;;;5062454;28;20060;-78
2021/10/17 09:36:17;;;;;;;17.73;9.38;;;12.10;99.90;;;;;;5063921;28;20097;-78
2021/10/17 09:38:45;;;;;;;21.55;10.23;;;12.10;99.90;;;;;;5072555;28;20032;-78
2021/10/17 09:41:20;;;;;;;20.27;9.68;;;12.20;99.90;;;;;;5072584;28;20075;-78
2021/10/17 09:44:04;;;;;;;18.90;9.05;;;12.30;99.90;;;;;;5069099;28;20029;-79
2021/10/17 09:46:30;;;;;;;23.10;10.02;;;12.20;99.90;;;;;;5064921;28;20043;-78
2021/10/17 09:48:56;;;;;;;20.08;9.75;;;12.40;99.90;;;;;;5066445;28;20370;-78
2021/10/17 09:51:28;;;;;;;20.90;9.90;;;12.40;99.90;;;;;;5064637;28;20066;-78
2021/10/17 09:53:58;;;;;;;17.83;9.00;;;12.40;99.90;;;;;;5068957;28;20384;-78
2021/10/17 09:56:37;;;;;;;18.80;9.35;;;12.50;99.90;;;;;;5064348;28;20048;-79
2021/10/17 09:59:06;;;;;;;17.10;8.70;;;12.60;99.90;;;;;;5065729;28;20041;-78
2021/10/17 10:01:33;;;;;;;18.55;8.23;;;12.60;99.90;;;;;;5066786;28;20024;-78
2021/10/17 10:04:01;;;;;;;13.07;7.43;;;12.70;99.90;;;;;;5062978;28;20051;-78
2021/10/17 10:06:27;;;;;;;22.38;8.38;;;12.50;99.90;;;;;;5064379;28;20017;-78
2021/10/17 10:09:00;;;;;;;19.67;7.97;;;12.60;99.90;;;;;;5067916;28;20036;-78
2021/10/17 10:11:28;;;;;;;22.90;7.60;;;12.80;99.90;;;;;;5067418;28;20111;-78
2021/10/17 10:13:59;;;;;;;18.10;7.18;;;12.80;99.90;;;;;;5071954;28;20027;-78
2021/10/17 10:16:27;;;;;;;11.63;7.05;;;12.80;99.90;;;;;;5070905;28;20028;-78
2021/10/17 10:19:00;;;;;;;15.00;7.30;;;12.90;99.90;;;;;;5072038;28;20016;-78
2021/10/17 10:21:27;;;;;;;12.18;6.30;;;13.00;99.90;;;;;;5064734;28;20013;-78
2021/10/17 10:23:55;;;;;;;16.88;6.60;;;13.00;99.90;;;;;;5065094;28;20165;-79
2021/10/17 10:26:24;;;;;;;12.63;6.35;;;13.10;99.90;;;;;;5070683;28;20568;-79
2021/10/17 10:28:51;;;;;;;17.50;7.00;;;13.20;99.90;;;;;;5070991;28;20044;-78
2021/10/17 10:31:44;;;;;;;15.73;6.50;;;13.30;99.90;;;;;;5066947;28;20028;-79
2021/10/17 10:34:13;;;;;;;11.73;5.68;;;13.40;99.90;;;;;;5071336;28;20436;-79
2021/10/17 10:36:41;;;;;;;13.45;5.88;;;13.50;99.90;;;;;;5063419;28;20469;-78
2021/10/17 10:39:09;;;;;;;16.60;5.72;;;13.50;99.90;;;;;;5062582;28;20093;-78
2021/10/17 10:41:56;;;;;;;12.65;6.13;;;13.50;99.90;;;;;;5067367;28;20103;-78
2021/10/17 10:44:27;;;;;;;13.73;5.63;;;13.50;99.90;;;;;;5062587;28;20017;-78
2021/10/17 10:46:55;;;;;;;10.00;6.00;;;13.40;99.90;;;;;;5067215;28;20117;-78
2021/10/17 10:49:46;;;;;;;12.20;5.80;;;13.60;99.90;;;;;;5062877;28;20071;-78
2021/10/17 10:52:24;;;;;;;9.52;5.38;;;13.70;99.90;;;;;;5057851;28;20029;-78
2021/10/17 10:54:55;;;;;;;13.82;5.55;;;13.80;99.90;;;;;;5062047;28;20138;-78
2021/10/17 10:57:21;;;;;;;14.55;5.47;;;13.70;99.90;;;;;;5057527;28;20068;-79
2021/10/17 11:00:02;;;;;;;11.88;5.35;;;13.70;99.90;;;;;;5063623;28;20067;-78
2021/10/17 11:02:29;;;;;;;11.40;5.40;;;13.70;99.90;;;;;;5069761;28;20039;-79
2021/10/17 11:04:56;;;;;;;15.07;5.63;;;13.80;99.90;;;;;;5068669;28;20020;-78
2021/10/17 11:07:29;;;;;;;10.07;5.60;;;13.80;99.90;;;;;;5069627;28;20059;-78
2021/10/17 11:09:57;;;;;;;24.73;11.10;;;13.80;99.90;;;;;;5065800;28;20492;-77
2021/10/17 11:12:40;;;;;;;27.55;12.93;;;13.80;99.90;;;;;;5068688;28;20021;-77
2021/10/17 11:15:07;;;;;;;14.55;8.70;;;13.80;99.90;;;;;;5060311;28;20045;-77
2021/10/17 11:17:33;;;;;;;11.05;5.35;;;13.80;99.90;;;;;;5065504;28;20024;-77
2021/10/17 11:19:59;;;;;;;11.43;5.28;;;13.80;99.90;;;;;;5060468;28;20027;-78
2021/10/17 11:22:25;;;;;;;12.77;7.20;;;13.80;99.90;;;;;;5064596;28;20040;-78
2021/10/17 11:24:52;;;;;;;15.38;7.10;;;13.80;99.90;;;;;;5060425;28;20102;-79
2021/10/17 11:27:18;;;;;;;12.10;5.68;;;14.00;99.90;;;;;;5061095;28;20036;-77
2021/10/17 11:29:45;;;;;;;8.23;5.18;;;14.00;99.90;;;;;;5061643;28;20032;-77
2021/10/17 11:32:19;;;;;;;10.43;4.72;;;14.10;99.90;;;;;;5060639;28;20385;-77
2021/10/17 11:35:02;;;;;;;8.52;4.68;;;14.20;99.90;;;;;;5058726;28;20473;-77
2021/10/17 11:37:30;;;;;;;13.43;5.55;;;14.20;99.90;;;;;;5057665;28;20397;-76
2021/10/17 11:40:02;;;;;;;12.23;4.82;;;14.20;99.90;;;;;;5060039;28;20028;-77
2021/10/17 11:42:30;;;;;;;12.82;4.38;;;14.20;99.90;;;;;;5054445;28;20036;-77
2021/10/17 11:44:56;;;;;;;14.63;5.72;;;14.20;99.90;;;;;;5058433;28;20035;-77
2021/10/17 11:47:22;;;;;;;13.27;4.85;;;14.30;99.90;;;;;;5057622;28;20088;-77
2021/10/17 11:49:48;;;;;;;11.25;5.88;;;14.40;99.90;;;;;;5059633;28;20439;-77
2021/10/17 11:52:15;;;;;;;11.38;5.60;;;14.40;99.90;;;;;;5061499;28;20033;-76
2021/10/17 11:54:46;;;;;;;13.90;4.90;;;14.40;99.90;;;;;;5063589;28;20382;-76
2021/10/17 11:57:28;;;;;;;9.63;5.03;;;14.50;99.90;;;;;;5060614;28;20025;-77
2021/10/17 12:00:06;;;;;;;7.47;5.28;;;14.60;99.90;;;;;;5056980;28;20056;-76
2021/10/17 12:02:36;;;;;;;11.25;5.13;;;14.60;99.90;;;;;;5077214;28;20470;-76
2021/10/17 12:05:15;;;;;;;14.48;4.90;;;14.70;99.90;;;;;;5057583;28;20103;-77
2021/10/17 12:07:41;;;;;;;12.05;4.80;;;14.70;99.90;;;;;;5046160;28;20128;-77
2021/10/17 12:10:10;;;;;;;8.73;4.60;;;14.70;99.90;;;;;;5044031;28;20021;-76
2021/10/17 12:12:39;;;;;;;9.68;4.78;;;14.60;99.90;;;;;;5059013;28;20103;-76
2021/10/17 12:15:07;;;;;;;10.30;5.43;;;14.60;99.90;;;;;;5059185;28;20036;-76
2021/10/17 12:17:33;;;;;;;7.80;4.80;;;14.50;99.90;;;;;;5063849;28;20543;-76
2021/10/17 12:20:14;;;;;;;16.42;6.05;;;14.50;99.90;;;;;;5061516;28;20083;-77
2021/10/17 12:22:46;;;;;;;14.40;6.38;;;14.60;99.90;;;;;;5060921;28;20150;-76
2021/10/17 12:25:14;;;;;;;9.57;4.82;;;14.50;99.90;;;;;;5060553;28;20043;-77
2021/10/17 12:27:43;;;;;;;11.18;4.57;;;14.50;99.90;;;;;;5058692;28;20117;-77
2021/10/17 12:30:09;;;;;;;11.80;4.63;;;14.60;99.90;;;;;;5057973;28;20029;-77
2021/10/17 12:32:52;;;;;;;15.02;5.15;;;14.70;99.90;;;;;;5064628;28;20527;-77
2021/10/17 12:35:21;;;;;;;9.45;4.90;;;14.70;99.90;;;;;;5065406;28;20133;-77
2021/10/17 12:37:47;;;;;;;10.13;4.88;;;14.70;99.90;;;;;;5061925;28;20070;-76